sensor_id;sensor_type;location;lat;lon;timestamp;pressure;altitude;pressure_sealevel;temperature;humidity
65190;BME280;51777;53.570;9.984;2024-02-14T00:01:05;101311.16;;;6.16;100.00
65190;BME280;51777;53.570;9.984;2024-02-14T00:03:34;101296.78;;;6.13;100.00
65190;BME280;51777;53.570;9.984;2024-02-14T00:06:00;101297.81;;;6.11;100.00
65190;BME280;51777;53.570;9.984;2024-02-14T00:08:25;101294.31;;;6.12;100.00
65190;BME280;51777;53.570;9.984;2024-02-14T00:10:50;101291.84;;;6.10;100.00
65190;BME280;51777;53.570;9.984;2024-02-14T00:13:16;101291.84;;;6.10;100.00
65190;BME280;51777;53.570;9.984;2024-02-14T00:15:43;101297.91;;;6.09;100.00
65190;BME280;51777;53.570;9.984;2024-02-14T00:18:10;101290.94;;;6.11;100.00
65190;BME280;51777;53.570;9.984;2024-02-14T00:20:35;101287.94;;;6.05;100.00
65190;BME280;51777;53.570;9.984;2024-02-14T00:23:01;101296.28;;;6.08;100.00
65190;BME280;51777;53.570;9.984;2024-02-14T00:25:27;101290.41;;;6.06;100.00
65190;BME280;51777;53.570;9.984;2024-02-14T00:27:52;101296.16;;;6.10;100.00
65190;BME280;51777;53.570;9.984;2024-02-14T00:30:19;101290.09;;;6.11;100.00
65190;BME280;51777;53.570;9.984;2024-02-14T00:32:44;101292.88;;;6.08;100.00
65190;BME280;51777;53.570;9.984;2024-02-14T00:35:10;101291.97;;;6.09;100.00
65190;BME280;51777;53.570;9.984;2024-02-14T00:37:35;101291.03;;;6.10;100.00
65190;BME280;51777;53.570;9.984;2024-02-14T00:40:01;101288.56;;;6.08;100.00
65190;BME280;51777;53.570;9.984;2024-02-14T00:42:26;101282.41;;;6.11;100.00
65190;BME280;51777;53.570;9.984;2024-02-14T00:44:52;101269.69;;;6.09;100.00
65190;BME280;51777;53.570;9.984;2024-02-14T00:47:18;101270.41;;;6.11;100.00
65190;BME280;51777;53.570;9.984;2024-02-14T00:49:43;101271.09;;;6.13;100.00
65190;BME280;51777;53.570;9.984;2024-02-14T00:52:09;101272.97;;;6.11;100.00
65190;BME280;51777;53.570;9.984;2024-02-14T00:54:34;101274.81;;;6.09;100.00
65190;BME280;51777;53.570;9.984;2024-02-14T00:57:00;101279.13;;;6.09;100.00
65190;BME280;51777;53.570;9.984;2024-02-14T00:59:25;101274.81;;;6.09;100.00
65190;BME280;51777;53.570;9.984;2024-02-14T01:01:51;101267.81;;;6.11;100.00
65190;BME280;51777;53.570;9.984;2024-02-14T01:04:17;101274.19;;;6.06;100.00
65190;BME280;51777;53.570;9.984;2024-02-14T01:06:42;101270.50;;;6.10;100.00
65190;BME280;51777;53.570;9.984;2024-02-14T01:09:07;101274.72;;;6.11;100.00
65190;BME280;51777;53.570;9.984;2024-02-14T01:11:34;101260.34;;;6.08;100.00
65190;BME280;51777;53.570;9.984;2024-02-14T01:13:59;101268.66;;;6.12;100.00
65190;BME280;51777;53.570;9.984;2024-02-14T01:16:25;101264.53;;;6.09;100.00
65190;BME280;51777;53.570;9.984;2024-02-14T01:18:53;101264.53;;;6.09;100.00
65190;BME280;51777;53.570;9.984;2024-02-14T01:21:18;101253.47;;;6.09;100.00
65190;BME280;51777;53.570;9.984;2024-02-14T01:23:44;101259.69;;;6.05;100.00
65190;BME280;51777;53.570;9.984;2024-02-14T01:26:09;101255.50;;;6.04;100.00
65190;BME280;51777;53.570;9.984;2024-02-14T01:28:34;101257.25;;;6.03;100.00
65190;BME280;51777;53.570;9.984;2024-02-14T01:31:00;101255.59;;;6.02;100.00
65190;BME280;51777;53.570;9.984;2024-02-14T01:33:25;101240.28;;;5.88;100.00
65190;BME280;51777;53.570;9.984;2024-02-14T01:35:51;101240.59;;;5.83;100.00
65190;BME280;51777;53.570;9.984;2024-02-14T01:38:16;101240.19;;;5.77;100.00
65190;BME280;51777;53.570;9.984;2024-02-14T01:40:42;101230.63;;;5.66;100.00
65190;BME280;51777;53.570;9.984;2024-02-14T01:43:10;101229.81;;;5.66;100.00
65190;BME280;51777;53.570;9.984;2024-02-14T01:45:35;101225.91;;;5.60;100.00
65190;BME280;51777;53.570;9.984;2024-02-14T01:48:05;101221.16;;;5.54;100.00
65190;BME280;51777;53.570;9.984;2024-02-14T01:50:31;101221.16;;;5.54;100.00
65190;BME280;51777;53.570;9.984;2024-02-14T01:52:58;101213.78;;;5.49;100.00
65190;BME280;51777;53.570;9.984;2024-02-14T01:55:29;101211.94;;;5.51;100.00
65190;BME280;51777;53.570;9.984;2024-02-14T01:57:55;101215.22;;;5.41;100.00
65190;BME280;51777;53.570;9.984;2024-02-14T02:00:21;101213.47;;;5.41;100.00
65190;BME280;51777;53.570;9.984;2024-02-14T02:02:46;101204.94;;;5.41;100.00
65190;BME280;51777;53.570;9.984;2024-02-14T02:05:13;101213.56;;;5.40;100.00
65190;BME280;51777;53.570;9.984;2024-02-14T02:07:39;101207.81;;;5.36;100.00
65190;BME280;51777;53.570;9.984;2024-02-14T02:10:12;101203.91;;;5.30;100.00
65190;BME280;51777;53.570;9.984;2024-02-14T02:12:37;101194.38;;;5.32;100.00
65190;BME280;51777;53.570;9.984;2024-02-14T02:15:05;101197.13;;;5.29;100.00
65190;BME280;51777;53.570;9.984;2024-02-14T02:17:32;101192.22;;;5.26;100.00
65190;BME280;51777;53.570;9.984;2024-02-14T02:20:00;101186.59;;;5.21;100.00
65190;BME280;51777;53.570;9.984;2024-02-14T02:22:26;101187.41;;;5.22;100.00
65190;BME280;51777;53.570;9.984;2024-02-14T02:24:51;101182.56;;;5.17;100.00
65190;BME280;51777;53.570;9.984;2024-02-14T02:27:16;101178.25;;;5.18;100.00
65190;BME280;51777;53.570;9.984;2024-02-14T02:29:42;101171.28;;;5.20;100.00
65190;BME280;51777;53.570;9.984;2024-02-14T02:32:08;101163.78;;;5.17;100.00
65190;BME280;51777;53.570;9.984;2024-02-14T02:34:35;101167.06;;;5.19;100.00
65190;BME280;51777;53.570;9.984;2024-02-14T02:37:05;101154.94;;;5.08;100.00
65190;BME280;51777;53.570;9.984;2024-02-14T02:39:33;101161.09;;;5.06;100.00
65190;BME280;51777;53.570;9.984;2024-02-14T02:41:58;101163.06;;;5.02;100.00
65190;BME280;51777;53.570;9.984;2024-02-14T02:44:24;101165.50;;;5.04;100.00
65190;BME280;51777;53.570;9.984;2024-02-14T02:46:50;101153.19;;;4.96;100.00
65190;BME280;51777;53.570;9.984;2024-02-14T02:49:15;101153.38;;;4.93;100.00
65190;BME280;51777;53.570;9.984;2024-02-14T02:51:41;101146.63;;;4.92;100.00
65190;BME280;51777;53.570;9.984;2024-02-14T02:54:06;101136.97;;;4.83;100.00
65190;BME280;51777;53.570;9.984;2024-02-14T02:56:33;101134.31;;;4.84;100.00
65190;BME280;51777;53.570;9.984;2024-02-14T02:58:59;101137.59;;;4.86;100.00
65190;BME280;51777;53.570;9.984;2024-02-14T03:01:24;101137.41;;;4.89;100.00
65190;BME280;51777;53.570;9.984;2024-02-14T03:03:54;101135.88;;;4.87;100.00
65190;BME280;51777;53.570;9.984;2024-02-14T03:06:20;101131.66;;;4.86;100.00
65190;BME280;51777;53.570;9.984;2024-02-14T03:08:45;101136.47;;;4.90;100.00
65190;BME280;51777;53.570;9.984;2024-02-14T03:11:11;101137.41;;;4.89;100.00
65190;BME280;51777;53.570;9.984;2024-02-14T03:13:36;101127.88;;;4.91;100.00
65190;BME280;51777;53.570;9.984;2024-02-14T03:16:06;101127.06;;;4.91;100.00
65190;BME280;51777;53.570;9.984;2024-02-14T03:18:32;101132.28;;;4.89;100.00
65190;BME280;51777;53.570;9.984;2024-02-14T03:20:58;101126.13;;;4.92;100.00
65190;BME280;51777;53.570;9.984;2024-02-14T03:23:23;101120.19;;;4.91;100.00
65190;BME280;51777;53.570;9.984;2024-02-14T03:25:48;101118.44;;;4.92;100.00
65190;BME280;51777;53.570;9.984;2024-02-14T03:28:14;101114.44;;;4.88;100.00
65190;BME280;51777;53.570;9.984;2024-02-14T03:30:40;101112.28;;;4.82;100.00
65190;BME280;51777;53.570;9.984;2024-02-14T03:33:05;101103.59;;;4.84;100.00
65190;BME280;51777;53.570;9.984;2024-02-14T03:35:33;101099.28;;;4.85;100.00
65190;BME280;51777;53.570;9.984;2024-02-14T03:38:01;101096.72;;;4.85;100.00
65190;BME280;51777;53.570;9.984;2024-02-14T03:40:27;101085.94;;;4.80;100.00
65190;BME280;51777;53.570;9.984;2024-02-14T03:42:55;101080.09;;;4.78;100.00
65190;BME280;51777;53.570;9.984;2024-02-14T03:45:20;101077.53;;;4.78;100.00
65190;BME280;51777;53.570;9.984;2024-02-14T03:47:46;101086.75;;;4.80;100.00
65190;BME280;51777;53.570;9.984;2024-02-14T03:50:11;101083.97;;;4.83;100.00
65190;BME280;51777;53.570;9.984;2024-02-14T03:52:37;101084.53;;;4.88;100.00
65190;BME280;51777;53.570;9.984;2024-02-14T03:55:03;101089.03;;;4.85;100.00
65190;BME280;51777;53.570;9.984;2024-02-14T03:57:28;101084.53;;;4.88;100.00
65190;BME280;51777;53.570;9.984;2024-02-14T03:59:54;101075.31;;;4.86;100.00
65190;BME280;51777;53.570;9.984;2024-02-14T04:02:23;101076.94;;;4.87;100.00
65190;BME280;51777;53.570;9.984;2024-02-14T04:04:49;101075.09;;;4.89;100.00
65190;BME280;51777;53.570;9.984;2024-02-14T04:07:15;101074.88;;;4.92;100.00
65190;BME280;51777;53.570;9.984;2024-02-14T04:09:40;101071.81;;;4.87;100.00
65190;BME280;51777;53.570;9.984;2024-02-14T04:12:06;101074.47;;;4.85;100.00
65190;BME280;51777;53.570;9.984;2024-02-14T04:14:31;101078.16;;;4.81;100.00
65190;BME280;51777;53.570;9.984;2024-02-14T04:16:57;101072.91;;;4.83;100.00
65190;BME280;51777;53.570;9.984;2024-02-14T04:19:22;101069.63;;;4.81;100.00
65190;BME280;51777;53.570;9.984;2024-02-14T04:21:47;101065.66;;;4.77;100.00
65190;BME280;51777;53.570;9.984;2024-02-14T04:24:13;101064.22;;;4.72;100.00
65190;BME280;51777;53.570;9.984;2024-02-14T04:26:39;101062.75;;;4.68;100.00
65190;BME280;51777;53.570;9.984;2024-02-14T04:29:04;101067.69;;;4.71;100.00
65190;BME280;51777;53.570;9.984;2024-02-14T04:31:30;101052.72;;;4.65;100.00
65190;BME280;51777;53.570;9.984;2024-02-14T04:33:57;101058.75;;;4.64;100.00
65190;BME280;51777;53.570;9.984;2024-02-14T04:36:22;101057.13;;;4.63;100.00
65190;BME280;51777;53.570;9.984;2024-02-14T04:38:50;101045.34;;;4.61;100.00
65190;BME280;51777;53.570;9.984;2024-02-14T04:41:17;101043.78;;;4.58;100.00
65190;BME280;51777;53.570;9.984;2024-02-14T04:43:42;101040.31;;;4.59;100.00
65190;BME280;51777;53.570;9.984;2024-02-14T04:46:08;101039.31;;;4.62;100.00
65190;BME280;51777;53.570;9.984;2024-02-14T04:48:37;101039.69;;;4.68;100.00
65190;BME280;51777;53.570;9.984;2024-02-14T04:51:03;101041.44;;;4.68;100.00
65190;BME280;51777;53.570;9.984;2024-02-14T04:53:30;101029.47;;;4.68;100.00
65190;BME280;51777;53.570;9.984;2024-02-14T04:55:55;101027.94;;;4.66;100.00
65190;BME280;51777;53.570;9.984;2024-02-14T04:58:22;101025.06;;;4.70;100.00
65190;BME280;51777;53.570;9.984;2024-02-14T05:00:47;101022.50;;;4.70;100.00
65190;BME280;51777;53.570;9.984;2024-02-14T05:03:12;101016.66;;;4.68;100.00
65190;BME280;51777;53.570;9.984;2024-02-14T05:05:38;101024.06;;;4.73;100.00
65190;BME280;51777;53.570;9.984;2024-02-14T05:08:04;101018.50;;;4.79;100.00
65190;BME280;51777;53.570;9.984;2024-02-14T05:10:30;101020.03;;;4.82;100.00
65190;BME280;51777;53.570;9.984;2024-02-14T05:12:56;101018.94;;;4.86;100.00
65190;BME280;51777;53.570;9.984;2024-02-14T05:15:21;101020.25;;;4.91;100.00
65190;BME280;51777;53.570;9.984;2024-02-14T05:17:47;101012.19;;;4.85;100.00
65190;BME280;51777;53.570;9.984;2024-02-14T05:20:13;101008.06;;;4.82;100.00
65190;BME280;51777;53.570;9.984;2024-02-14T05:22:39;101014.63;;;4.86;100.00
65190;BME280;51777;53.570;9.984;2024-02-14T05:25:05;101016.88;;;4.91;100.00
65190;BME280;51777;53.570;9.984;2024-02-14T05:27:32;101013.28;;;4.93;100.00
65190;BME280;51777;53.570;9.984;2024-02-14T05:29:58;101011.03;;;4.89;100.00
65190;BME280;51777;53.570;9.984;2024-02-14T05:32:24;101016.56;;;4.95;100.00
65190;BME280;51777;53.570;9.984;2024-02-14T05:34:50;101016.66;;;4.94;100.00
65190;BME280;51777;53.570;9.984;2024-02-14T05:37:16;101012.19;;;4.97;100.00
65190;BME280;51777;53.570;9.984;2024-02-14T05:39:42;101010.44;;;4.98;100.00
65190;BME280;51777;53.570;9.984;2024-02-14T05:42:08;101012.78;;;5.01;100.00
65190;BME280;51777;53.570;9.984;2024-02-14T05:44:34;101005.81;;;5.03;100.00
65190;BME280;51777;53.570;9.984;2024-02-14T05:46:59;100997.19;;;5.04;100.00
65190;BME280;51777;53.570;9.984;2024-02-14T05:49:25;100998.84;;;5.05;100.00
65190;BME280;51777;53.570;9.984;2024-02-14T05:51:51;100997.72;;;5.09;100.00
65190;BME280;51777;53.570;9.984;2024-02-14T05:54:18;100997.63;;;5.11;100.00
65190;BME280;51777;53.570;9.984;2024-02-14T05:56:44;100997.41;;;5.14;100.00
65190;BME280;51777;53.570;9.984;2024-02-14T05:59:10;101001.00;;;5.11;100.00
65190;BME280;51777;53.570;9.984;2024-02-14T06:01:35;100989.81;;;5.12;100.00
65190;BME280;51777;53.570;9.984;2024-02-14T06:04:01;100995.56;;;5.16;100.00
65190;BME280;51777;53.570;9.984;2024-02-14T06:06:26;100998.00;;;5.17;100.00
65190;BME280;51777;53.570;9.984;2024-02-14T06:08:52;100996.16;;;5.19;100.00
65190;BME280;51777;53.570;9.984;2024-02-14T06:11:17;100990.09;;;5.20;100.00
65190;BME280;51777;53.570;9.984;2024-02-14T06:13:47;100991.13;;;5.30;100.00
65190;BME280;51777;53.570;9.984;2024-02-14T06:16:12;100985.16;;;5.30;100.00
65190;BME280;51777;53.570;9.984;2024-02-14T06:18:38;100983.97;;;5.23;100.00
65190;BME280;51777;53.570;9.984;2024-02-14T06:21:05;100985.28;;;5.28;100.00
65190;BME280;51777;53.570;9.984;2024-02-14T06:23:31;100977.59;;;5.28;100.00
65190;BME280;51777;53.570;9.984;2024-02-14T06:25:57;100974.31;;;5.26;100.00
65190;BME280;51777;53.570;9.984;2024-02-14T06:28:22;100981.06;;;5.27;100.00
65190;BME280;51777;53.570;9.984;2024-02-14T06:30:49;100980.84;;;5.30;100.00
65190;BME280;51777;53.570;9.984;2024-02-14T06:33:14;100973.16;;;5.30;100.00
65190;BME280;51777;53.570;9.984;2024-02-14T06:35:40;100979.00;;;5.32;100.00
65190;BME280;51777;53.570;9.984;2024-02-14T06:38:06;100983.94;;;5.36;100.00
65190;BME280;51777;53.570;9.984;2024-02-14T06:40:32;100982.81;;;5.40;100.00
65190;BME280;51777;53.570;9.984;2024-02-14T06:42:58;100981.06;;;5.40;100.00
65190;BME280;51777;53.570;9.984;2024-02-14T06:45:27;100978.28;;;5.43;100.00
65190;BME280;51777;53.570;9.984;2024-02-14T06:47:55;100980.00;;;5.43;100.00
65190;BME280;51777;53.570;9.984;2024-02-14T06:50:21;100980.53;;;5.48;100.00
65190;BME280;51777;53.570;9.984;2024-02-14T06:52:47;100983.09;;;5.48;100.00
65190;BME280;51777;53.570;9.984;2024-02-14T06:55:12;100973.44;;;5.51;100.00
65190;BME280;51777;53.570;9.984;2024-02-14T06:57:38;100984.28;;;5.55;100.00
65190;BME280;51777;53.570;9.984;2024-02-14T07:00:04;100977.53;;;5.54;100.00
65190;BME280;51777;53.570;9.984;2024-02-14T07:02:34;100978.03;;;5.59;100.00
65190;BME280;51777;53.570;9.984;2024-02-14T07:04:59;100975.16;;;5.64;100.00
65190;BME280;51777;53.570;9.984;2024-02-14T07:07:25;100987.84;;;5.65;100.00
65190;BME280;51777;53.570;9.984;2024-02-14T07:09:51;100985.41;;;5.64;100.00
65190;BME280;51777;53.570;9.984;2024-02-14T07:12:16;100977.47;;;5.67;100.00
65190;BME280;51777;53.570;9.984;2024-02-14T07:14:41;100985.78;;;5.70;100.00
65190;BME280;51777;53.570;9.984;2024-02-14T07:17:07;100977.25;;;5.70;100.00
65190;BME280;51777;53.570;9.984;2024-02-14T07:19:32;100980.22;;;5.76;100.00
65190;BME280;51777;53.570;9.984;2024-02-14T07:21:58;100988.16;;;5.73;100.00
65190;BME280;51777;53.570;9.984;2024-02-14T07:24:23;100982.19;;;5.73;100.00
65190;BME280;51777;53.570;9.984;2024-02-14T07:26:49;100987.09;;;5.76;100.00
65190;BME280;51777;53.570;9.984;2024-02-14T07:29:14;100983.50;;;5.78;100.00
65190;BME280;51777;53.570;9.984;2024-02-14T07:31:40;100981.03;;;5.77;100.00
65190;BME280;51777;53.570;9.984;2024-02-14T07:34:06;100981.63;;;5.80;100.00
65190;BME280;51777;53.570;9.984;2024-02-14T07:36:34;100984.00;;;5.83;100.00
65190;BME280;51777;53.570;9.984;2024-02-14T07:39:00;100982.03;;;5.87;100.00
65190;BME280;51777;53.570;9.984;2024-02-14T07:41:25;100981.84;;;5.90;100.00
65190;BME280;51777;53.570;9.984;2024-02-14T07:43:51;100981.00;;;5.89;100.00
65190;BME280;51777;53.570;9.984;2024-02-14T07:46:20;100984.06;;;5.95;100.00
65190;BME280;51777;53.570;9.984;2024-02-14T07:48:48;100980.78;;;5.93;100.00
65190;BME280;51777;53.570;9.984;2024-02-14T07:51:14;100974.03;;;5.92;100.00
65190;BME280;51777;53.570;9.984;2024-02-14T07:53:39;100969.59;;;5.94;100.00
65190;BME280;51777;53.570;9.984;2024-02-14T07:56:06;100967.66;;;5.97;100.00
65190;BME280;51777;53.570;9.984;2024-02-14T07:58:31;100969.75;;;6.03;100.00
65190;BME280;51777;53.570;9.984;2024-02-14T08:00:57;100968.47;;;5.98;100.00
65190;BME280;51777;53.570;9.984;2024-02-14T08:03:22;100974.19;;;6.01;100.00
65190;BME280;51777;53.570;9.984;2024-02-14T08:05:49;100971.09;;;6.09;100.00
65190;BME280;51777;53.570;9.984;2024-02-14T08:08:16;100973.53;;;6.10;100.00
65190;BME280;51777;53.570;9.984;2024-02-14T08:10:42;100976.59;;;6.15;100.00
65190;BME280;51777;53.570;9.984;2024-02-14T08:13:08;100976.03;;;6.23;100.00
65190;BME280;51777;53.570;9.984;2024-02-14T08:15:33;100980.47;;;6.21;100.00
65190;BME280;51777;53.570;9.984;2024-02-14T08:17:59;100966.59;;;6.24;100.00
65190;BME280;51777;53.570;9.984;2024-02-14T08:20:25;100972.31;;;6.27;100.00
65190;BME280;51777;53.570;9.984;2024-02-14T08:22:52;100972.56;;;6.35;100.00
65190;BME280;51777;53.570;9.984;2024-02-14T08:25:18;100966.38;;;6.38;100.00
65190;BME280;51777;53.570;9.984;2024-02-14T08:27:43;100972.09;;;6.41;100.00
65190;BME280;51777;53.570;9.984;2024-02-14T08:30:10;100971.66;;;6.47;100.00
65190;BME280;51777;53.570;9.984;2024-02-14T08:32:37;100974.00;;;6.51;100.00
65190;BME280;51777;53.570;9.984;2024-02-14T08:35:02;100976.84;;;6.59;100.00
65190;BME280;51777;53.570;9.984;2024-02-14T08:37:28;100970.06;;;6.58;100.00
65190;BME280;51777;53.570;9.984;2024-02-14T08:39:53;100969.47;;;6.65;100.00
65190;BME280;51777;53.570;9.984;2024-02-14T08:42:19;100970.88;;;6.69;100.00
65190;BME280;51777;53.570;9.984;2024-02-14T08:44:44;100974.75;;;6.75;100.00
65190;BME280;51777;53.570;9.984;2024-02-14T08:47:11;100972.66;;;6.80;100.00
65190;BME280;51777;53.570;9.984;2024-02-14T08:49:40;100971.97;;;6.89;100.00
65190;BME280;51777;53.570;9.984;2024-02-14T08:52:06;100968.22;;;6.93;100.00
65190;BME280;51777;53.570;9.984;2024-02-14T08:54:31;100976.41;;;6.98;100.00
65190;BME280;51777;53.570;9.984;2024-02-14T08:56:57;100976.75;;;7.05;100.00
65190;BME280;51777;53.570;9.984;2024-02-14T08:59:24;100981.75;;;7.06;100.00
65190;BME280;51777;53.570;9.984;2024-02-14T09:01:50;100982.25;;;7.12;100.00
65190;BME280;51777;53.570;9.984;2024-02-14T09:04:15;100989.59;;;7.16;100.00
65190;BME280;51777;53.570;9.984;2024-02-14T09:06:40;100981.56;;;7.21;100.00
65190;BME280;51777;53.570;9.984;2024-02-14T09:09:07;100987.59;;;7.31;100.00
65190;BME280;51777;53.570;9.984;2024-02-14T09:11:35;100979.69;;;7.34;100.00
65190;BME280;51777;53.570;9.984;2024-02-14T09:14:01;100981.06;;;7.38;100.00
65190;BME280;51777;53.570;9.984;2024-02-14T09:16:29;100986.44;;;7.46;100.00
65190;BME280;51777;53.570;9.984;2024-02-14T09:18:55;100980.56;;;7.55;100.00
65190;BME280;51777;53.570;9.984;2024-02-14T09:21:21;100985.38;;;7.60;100.00
65190;BME280;51777;53.570;9.984;2024-02-14T09:23:48;100988.03;;;7.70;100.00
65190;BME280;51777;53.570;9.984;2024-02-14T09:26:13;100988.25;;;7.66;100.00
65190;BME280;51777;53.570;9.984;2024-02-14T09:28:42;100987.66;;;7.74;100.00
65190;BME280;51777;53.570;9.984;2024-02-14T09:31:07;100989.03;;;7.78;100.00
65190;BME280;51777;53.570;9.984;2024-02-14T09:33:35;100987.75;;;7.84;100.00
65190;BME280;51777;53.570;9.984;2024-02-14T09:36:02;100982.50;;;7.85;100.00
65190;BME280;51777;53.570;9.984;2024-02-14T09:38:28;100987.00;;;7.93;100.00
65190;BME280;51777;53.570;9.984;2024-02-14T09:40:58;100993.31;;;8.00;100.00
65190;BME280;51777;53.570;9.984;2024-02-14T09:43:36;100988.59;;;8.05;100.00
65190;BME280;51777;53.570;9.984;2024-02-14T09:46:03;100993.41;;;8.10;100.00
65190;BME280;51777;53.570;9.984;2024-02-14T09:48:30;100988.94;;;8.12;100.00
65190;BME280;51777;53.570;9.984;2024-02-14T09:50:56;100988.56;;;8.16;100.00
65190;BME280;51777;53.570;9.984;2024-02-14T09:53:22;100991.47;;;8.23;100.00
65190;BME280;51777;53.570;9.984;2024-02-14T09:55:49;100994.03;;;8.34;100.00
65190;BME280;51777;53.570;9.984;2024-02-14T09:58:16;101002.75;;;8.43;100.00
65190;BME280;51777;53.570;9.984;2024-02-14T10:00:42;100992.09;;;8.47;100.00
65190;BME280;51777;53.570;9.984;2024-02-14T10:03:08;101000.13;;;8.54;100.00
65190;BME280;51777;53.570;9.984;2024-02-14T10:05:33;100995.22;;;8.51;100.00
65190;BME280;51777;53.570;9.984;2024-02-14T10:07:59;101003.97;;;8.60;100.00
65190;BME280;51777;53.570;9.984;2024-02-14T10:10:26;100999.88;;;8.57;100.00
65190;BME280;51777;53.570;9.984;2024-02-14T10:12:54;100995.16;;;8.62;100.00
65190;BME280;51777;53.570;9.984;2024-02-14T10:15:21;101004.72;;;8.71;100.00
65190;BME280;51777;53.570;9.984;2024-02-14T10:17:47;101002.16;;;8.71;100.00
65190;BME280;51777;53.570;9.984;2024-02-14T10:20:17;101005.41;;;8.73;100.00
65190;BME280;51777;53.570;9.984;2024-02-14T10:22:42;101012.19;;;8.74;100.00
65190;BME280;51777;53.570;9.984;2024-02-14T10:25:09;101006.09;;;8.75;100.00
65190;BME280;51777;53.570;9.984;2024-02-14T10:27:36;101014.09;;;8.72;100.00
65190;BME280;51777;53.570;9.984;2024-02-14T10:30:07;101012.63;;;8.79;100.00
65190;BME280;51777;53.570;9.984;2024-02-14T10:32:39;101014.38;;;8.79;100.00
65190;BME280;51777;53.570;9.984;2024-02-14T10:35:14;101019.16;;;8.83;100.00
65190;BME280;51777;53.570;9.984;2024-02-14T10:37:40;101015.66;;;8.85;100.00
65190;BME280;51777;53.570;9.984;2024-02-14T10:40:07;101017.97;;;8.88;100.00
65190;BME280;51777;53.570;9.984;2024-02-14T10:42:37;101021.09;;;8.91;100.00
65190;BME280;51777;53.570;9.984;2024-02-14T10:45:04;101020.97;;;8.93;100.00
65190;BME280;51777;53.570;9.984;2024-02-14T10:47:40;101025.94;;;9.05;100.00
65190;BME280;51777;53.570;9.984;2024-02-14T10:50:12;101027.88;;;9.13;100.00
65190;BME280;51777;53.570;9.984;2024-02-14T10:52:40;101027.19;;;9.11;100.00
65190;BME280;51777;53.570;9.984;2024-02-14T10:55:16;101030.75;;;9.20;100.00
65190;BME280;51777;53.570;9.984;2024-02-14T10:57:43;101027.66;;;9.26;100.00
65190;BME280;51777;53.570;9.984;2024-02-14T11:00:12;101027.66;;;9.26;100.00
65190;BME280;51777;53.570;9.984;2024-02-14T11:02:40;101022.78;;;9.32;100.00
65190;BME280;51777;53.570;9.984;2024-02-14T11:05:15;101031.22;;;9.34;100.00
65190;BME280;51777;53.570;9.984;2024-02-14T11:07:45;101029.13;;;9.28;100.00
65190;BME280;51777;53.570;9.984;2024-02-14T11:10:16;101028.19;;;9.29;100.00
65190;BME280;51777;53.570;9.984;2024-02-14T11:12:48;101029.84;;;9.30;100.00
65190;BME280;51777;53.570;9.984;2024-02-14T11:15:20;101034.47;;;9.36;100.00
65190;BME280;51777;53.570;9.984;2024-02-14T11:17:48;101023.34;;;9.36;100.00
65190;BME280;51777;53.570;9.984;2024-02-14T11:20:30;101025.53;;;9.40;100.00
65190;BME280;51777;53.570;9.984;2024-02-14T11:22:57;101023.78;;;9.51;100.00
65190;BME280;51777;53.570;9.984;2024-02-14T11:25:30;101025.16;;;9.55;100.00
65190;BME280;51777;53.570;9.984;2024-02-14T11:28:00;101032.38;;;9.61;100.00
65190;BME280;51777;53.570;9.984;2024-02-14T11:30:40;101027.75;;;9.64;100.00
65190;BME280;51777;53.570;9.984;2024-02-14T11:35:41;101033.75;;;9.65;100.00
65190;BME280;51777;53.570;9.984;2024-02-14T11:38:08;101036.50;;;9.73;100.00
65190;BME280;51777;53.570;9.984;2024-02-14T11:40:34;101036.63;;;9.71;100.00
65190;BME280;51777;53.570;9.984;2024-02-14T11:43:00;101042.19;;;9.77;100.00
65190;BME280;51777;53.570;9.984;2024-02-14T11:45:27;101033.53;;;9.87;100.00
65190;BME280;51777;53.570;9.984;2024-02-14T11:47:53;101038.16;;;9.93;100.00
65190;BME280;51777;53.570;9.984;2024-02-14T11:50:20;101045.22;;;9.91;100.00
65190;BME280;51777;53.570;9.984;2024-02-14T11:52:46;101039.81;;;9.94;100.00
65190;BME280;51777;53.570;9.984;2024-02-14T11:55:11;101042.91;;;9.88;100.00
65190;BME280;51777;53.570;9.984;2024-02-14T11:57:41;101047.13;;;9.89;100.00
65190;BME280;51777;53.570;9.984;2024-02-14T12:00:13;101052.28;;;9.89;100.00
65190;BME280;51777;53.570;9.984;2024-02-14T12:02:39;101040.88;;;9.92;100.00
65190;BME280;51777;53.570;9.984;2024-02-14T12:05:05;101044.41;;;9.91;100.00
65190;BME280;51777;53.570;9.984;2024-02-14T12:07:32;101049.03;;;9.87;100.00
65190;BME280;51777;53.570;9.984;2024-02-14T12:09:57;101041.28;;;9.97;100.00
65190;BME280;51777;53.570;9.984;2024-02-14T12:12:23;101046.06;;;10.01;100.00
65190;BME280;51777;53.570;9.984;2024-02-14T12:14:52;101043.59;;;10.00;100.00
65190;BME280;51777;53.570;9.984;2024-02-14T12:17:26;101042.53;;;10.12;100.00
65190;BME280;51777;53.570;9.984;2024-02-14T12:19:52;101048.22;;;10.16;100.00
65190;BME280;51777;53.570;9.984;2024-02-14T12:22:18;101048.66;;;10.21;100.00
65190;BME280;51777;53.570;9.984;2024-02-14T12:24:45;101057.75;;;10.15;100.00
65190;BME280;51777;53.570;9.984;2024-02-14T12:27:10;101061.03;;;10.17;100.00
65190;BME280;51777;53.570;9.984;2024-02-14T12:29:36;101058.31;;;10.19;100.00
65190;BME280;51777;53.570;9.984;2024-02-14T12:32:07;101057.25;;;10.21;100.00
65190;BME280;51777;53.570;9.984;2024-02-14T12:34:33;101052.50;;;10.26;100.00
65190;BME280;51777;53.570;9.984;2024-02-14T12:36:59;101060.66;;;10.32;100.00
65190;BME280;51777;53.570;9.984;2024-02-14T12:39:26;101062.44;;;10.31;100.00
65190;BME280;51777;53.570;9.984;2024-02-14T12:41:52;101070.06;;;10.33;100.00
65190;BME280;51777;53.570;9.984;2024-02-14T12:44:17;101067.06;;;10.37;100.00
65190;BME280;51777;53.570;9.984;2024-02-14T12:46:43;101068.53;;;10.40;100.00
65190;BME280;51777;53.570;9.984;2024-02-14T12:49:09;101066.78;;;10.40;100.00